Time;durP1;ratioP1;P1;durP2;ratioP2;P2;SDS_P1;SDS_P2;PMS_P1;PMS_P2;Temp;Humidity;BMP_temperature;BMP_pressure;BME280_temperature;BME280_humidity;BME280_pressure;Samples;Min_cycle;Max_cycle;Signal;HPM_P1;HPM_P2
2022/04/08 00:00:57;;;;;;;10.15;2.67;;;;;;;;;;5061197;28;20021;-75
2022/04/08 00:03:27;;;;;;;7.85;1.67;;;;;;;;;;5052663;28;20060;-75
2022/04/08 00:05:54;;;;;;;9.43;1.77;;;;;;;;;;5033748;28;20056;-75
2022/04/08 00:08:20;;;;;;;5.55;1.83;;;;;;;;;;5051350;28;20390;-76
2022/04/08 00:10:47;;;;;;;8.15;1.55;;;;;;;;;;5049630;28;20048;-76
2022/04/08 00:13:13;;;;;;;11.43;1.83;;;;;;;;;;5051925;28;20077;-76
2022/04/08 00:15:40;;;;;;;7.68;2.00;;;;;;;;;;5051480;28;20033;-75
2022/04/08 00:18:06;;;;;;;12.70;1.95;;;;;;;;;;5033011;28;20040;-76
2022/04/08 00:20:33;;;;;;;11.32;2.22;;;;;;;;;;5051382;28;20048;-76
2022/04/08 00:22:59;;;;;;;6.38;1.70;;;;;;;;;;5051299;28;20037;-76
2022/04/08 00:25:25;;;;;;;8.23;2.20;;;;;;;;;;5051010;28;20024;-75
2022/04/08 00:27:51;;;;;;;7.93;1.55;;;;;;;;;;5051335;28;20044;-75
2022/04/08 00:30:17;;;;;;;5.38;1.63;;;;;;;;;;5051448;28;20492;-75
2022/04/08 00:32:43;;;;;;;9.10;1.80;;;;;;;;;;5051416;28;20029;-76
2022/04/08 00:35:09;;;;;;;10.07;1.75;;;;;;;;;;5051196;28;20030;-76
2022/04/08 00:37:35;;;;;;;11.52;1.90;;;;;;;;;;5051225;28;20505;-76
2022/04/08 00:40:01;;;;;;;11.80;1.92;;;;;;;;;;5051378;28;20025;-76
2022/04/08 00:42:27;;;;;;;14.25;1.92;;;;;;;;;;5032213;28;20048;-75
2022/04/08 00:44:53;;;;;;;9.15;1.83;;;;;;;;;;5051160;28;20025;-76
2022/04/08 00:47:19;;;;;;;8.75;1.80;;;;;;;;;;5032378;28;20527;-76
2022/04/08 00:49:45;;;;;;;8.95;2.13;;;;;;;;;;5050823;28;20025;-76
2022/04/08 00:52:11;;;;;;;11.30;1.90;;;;;;;;;;5050493;28;20055;-75
2022/04/08 00:54:39;;;;;;;9.90;1.80;;;;;;;;;;5032186;28;20033;-76
2022/04/08 00:57:05;;;;;;;9.63;1.90;;;;;;;;;;5050432;28;20024;-75
2022/04/08 00:59:31;;;;;;;8.35;1.60;;;;;;;;;;5032083;28;20059;-75
2022/04/08 01:01:57;;;;;;;10.48;1.90;;;;;;;;;;5050271;28;20033;-75
2022/04/08 01:04:23;;;;;;;10.82;1.95;;;;;;;;;;5050428;28;20025;-76
2022/04/08 01:06:49;;;;;;;8.88;1.90;;;;;;;;;;5031424;28;20041;-76
2022/04/08 01:09:16;;;;;;;8.85;2.38;;;;;;;;;;5048615;28;20427;-76
2022/04/08 01:11:53;;;;;;;6.50;1.58;;;;;;;;;;5048478;28;20033;-75
2022/04/08 01:14:19;;;;;;;8.82;2.03;;;;;;;;;;5048569;28;20033;-76
2022/04/08 01:16:45;;;;;;;7.20;1.50;;;;;;;;;;5048826;28;20031;-76
2022/04/08 01:19:11;;;;;;;11.68;2.05;;;;;;;;;;5048769;28;20722;-76
2022/04/08 01:21:36;;;;;;;13.00;2.35;;;;;;;;;;5048340;28;20068;-75
2022/04/08 01:24:03;;;;;;;9.13;1.67;;;;;;;;;;5048904;28;20084;-75
2022/04/08 01:26:29;;;;;;;13.93;2.10;;;;;;;;;;5049670;28;20035;-76
2022/04/08 01:28:56;;;;;;;8.45;1.95;;;;;;;;;;5049563;28;20033;-76
2022/04/08 01:31:24;;;;;;;8.07;1.55;;;;;;;;;;5049624;28;20033;-75
2022/04/08 01:33:52;;;;;;;12.85;3.08;;;;;;;;;;5031646;28;20033;-76
2022/04/08 01:36:18;;;;;;;11.23;2.28;;;;;;;;;;5049422;28;20044;-76
2022/04/08 01:38:44;;;;;;;8.20;1.77;;;;;;;;;;5049301;28;20031;-76
2022/04/08 01:41:10;;;;;;;8.98;1.95;;;;;;;;;;5049218;28;20021;-76
2022/04/08 01:43:36;;;;;;;7.20;2.13;;;;;;;;;;5049208;28;20533;-75
2022/04/08 01:49:37;;;;;;;10.98;2.17;;;;;;;;;;4898138;28;20048;-76
2022/04/08 01:52:04;;;;;;;12.07;2.28;;;;;;;;;;5046329;28;20588;-76
2022/04/08 01:54:29;;;;;;;6.90;1.83;;;;;;;;;;5049612;28;20031;-75
2022/04/08 01:56:56;;;;;;;11.60;2.25;;;;;;;;;;5049522;28;20609;-76
2022/04/08 01:59:21;;;;;;;8.60;2.60;;;;;;;;;;5032009;28;20033;-77
2022/04/08 02:01:47;;;;;;;10.27;2.30;;;;;;;;;;5049759;28;20064;-76
2022/04/08 02:04:13;;;;;;;12.25;1.90;;;;;;;;;;5049961;28;20406;-76
2022/04/08 02:06:40;;;;;;;11.40;1.85;;;;;;;;;;5031877;28;20180;-76
2022/04/08 02:09:11;;;;;;;13.02;2.22;;;;;;;;;;5037792;28;20032;-76
2022/04/08 02:11:38;;;;;;;8.10;1.77;;;;;;;;;;5040777;28;20045;-76
2022/04/08 02:14:04;;;;;;;10.02;2.03;;;;;;;;;;5049776;28;20028;-76
2022/04/08 02:16:30;;;;;;;12.57;2.20;;;;;;;;;;5049444;28;20498;-75
2022/04/08 02:18:57;;;;;;;7.10;1.70;;;;;;;;;;5030824;28;20502;-76
2022/04/08 02:21:24;;;;;;;15.60;2.67;;;;;;;;;;5049149;28;20040;-76
2022/04/08 02:23:51;;;;;;;12.45;2.22;;;;;;;;;;5049342;28;20032;-76
2022/04/08 02:26:17;;;;;;;12.05;2.17;;;;;;;;;;5048897;28;20040;-76
2022/04/08 02:28:44;;;;;;;9.10;2.17;;;;;;;;;;5048839;28;20613;-76
2022/04/08 02:31:11;;;;;;;10.65;1.90;;;;;;;;;;5049123;28;20029;-75
2022/04/08 02:33:37;;;;;;;8.48;1.77;;;;;;;;;;5048844;28;20028;-75
2022/04/08 02:36:04;;;;;;;10.23;2.28;;;;;;;;;;5030312;28;20417;-75
2022/04/08 02:38:30;;;;;;;9.60;2.17;;;;;;;;;;5048956;28;20048;-75
2022/04/08 02:40:56;;;;;;;11.93;2.30;;;;;;;;;;5048750;28;20060;-76
2022/04/08 02:43:22;;;;;;;8.65;1.90;;;;;;;;;;5048732;28;20025;-76
2022/04/08 02:45:48;;;;;;;12.57;2.10;;;;;;;;;;5048713;28;20029;-75
2022/04/08 02:48:14;;;;;;;8.98;1.55;;;;;;;;;;5048331;28;20524;-76
2022/04/08 02:50:41;;;;;;;9.10;2.28;;;;;;;;;;5048388;28;20029;-76
2022/04/08 02:53:07;;;;;;;15.95;2.40;;;;;;;;;;5048489;28;20512;-75
2022/04/08 02:55:35;;;;;;;11.48;1.95;;;;;;;;;;5049241;28;20036;-75
2022/04/08 02:58:02;;;;;;;11.68;2.30;;;;;;;;;;5052585;28;20123;-76
2022/04/08 03:00:28;;;;;;;9.60;1.98;;;;;;;;;;5052758;28;20481;-76
2022/04/08 03:02:53;;;;;;;9.82;2.05;;;;;;;;;;5052627;28;20049;-76
2022/04/08 03:05:19;;;;;;;7.85;2.13;;;;;;;;;;5052660;28;20063;-76
2022/04/08 03:07:45;;;;;;;10.23;2.10;;;;;;;;;;5034294;28;20048;-75
2022/04/08 03:10:12;;;;;;;5.55;1.90;;;;;;;;;;5053073;28;20029;-75
2022/04/08 03:12:38;;;;;;;4.47;1.88;;;;;;;;;;5052618;28;20033;-76
2022/04/08 03:15:05;;;;;;;5.38;1.27;;;;;;;;;;5052493;28;20040;-75
2022/04/08 03:17:30;;;;;;;5.00;1.52;;;;;;;;;;5052206;28;20596;-75
2022/04/08 03:19:57;;;;;;;6.70;1.63;;;;;;;;;;5052411;28;20058;-75
2022/04/08 03:22:23;;;;;;;4.95;1.60;;;;;;;;;;5052446;28;20061;-76
2022/04/08 03:24:50;;;;;;;4.88;1.33;;;;;;;;;;5052275;28;20029;-77
2022/04/08 03:27:17;;;;;;;2.20;1.20;;;;;;;;;;5033699;28;20041;-76
2022/04/08 03:29:43;;;;;;;3.75;1.30;;;;;;;;;;5051924;28;20033;-75
2022/04/08 03:32:10;;;;;;;3.90;1.40;;;;;;;;;;5052400;28;20485;-76
2022/04/08 03:34:37;;;;;;;3.83;1.33;;;;;;;;;;5052466;28;20040;-75
2022/04/08 03:37:04;;;;;;;6.15;1.67;;;;;;;;;;5033482;28;20037;-76
2022/04/08 03:39:30;;;;;;;3.03;1.50;;;;;;;;;;5052386;28;20687;-75
2022/04/08 03:41:55;;;;;;;5.22;1.58;;;;;;;;;;5034165;28;20045;-75
2022/04/08 03:44:21;;;;;;;3.55;1.50;;;;;;;;;;5051795;28;20355;-76
2022/04/08 03:46:47;;;;;;;3.58;1.17;;;;;;;;;;5051691;28;20417;-75
2022/04/08 03:49:17;;;;;;;3.85;1.30;;;;;;;;;;5051637;28;20032;-76
2022/04/08 03:51:44;;;;;;;4.28;1.70;;;;;;;;;;5051503;28;20052;-76
2022/04/08 03:54:10;;;;;;;3.42;1.10;;;;;;;;;;5051633;28;20025;-76
2022/04/08 03:56:37;;;;;;;4.20;1.13;;;;;;;;;;5049372;28;20025;-76
2022/04/08 03:59:03;;;;;;;3.70;1.10;;;;;;;;;;5050900;28;20072;-75
2022/04/08 04:01:30;;;;;;;4.88;1.38;;;;;;;;;;5052015;28;20025;-75
2022/04/08 04:03:56;;;;;;;3.97;1.45;;;;;;;;;;5052012;28;20025;-76
2022/04/08 04:06:22;;;;;;;4.82;1.45;;;;;;;;;;5051548;28;20028;-76
2022/04/08 04:08:48;;;;;;;3.90;1.33;;;;;;;;;;5033600;28;20029;-75
2022/04/08 04:11:16;;;;;;;5.25;1.50;;;;;;;;;;5032453;28;20052;-76
2022/04/08 04:13:43;;;;;;;6.20;1.58;;;;;;;;;;5031765;28;20036;-76
2022/04/08 04:16:09;;;;;;;4.88;1.38;;;;;;;;;;5031163;28;20497;-76
2022/04/08 04:18:35;;;;;;;5.38;1.27;;;;;;;;;;5031079;28;20029;-76
2022/04/08 04:21:01;;;;;;;5.03;1.50;;;;;;;;;;5031184;28;20541;-76
2022/04/08 04:23:27;;;;;;;3.53;1.23;;;;;;;;;;5031073;28;20064;-76
2022/04/08 04:25:53;;;;;;;4.22;1.38;;;;;;;;;;5013187;28;20045;-76
2022/04/08 04:28:19;;;;;;;3.90;1.40;;;;;;;;;;5031143;28;20065;-75
2022/04/08 04:30:44;;;;;;;3.40;1.35;;;;;;;;;;5034569;28;20033;-76
2022/04/08 04:33:11;;;;;;;5.50;1.95;;;;;;;;;;5013028;28;20095;-76
2022/04/08 04:35:38;;;;;;;3.08;1.30;;;;;;;;;;5033053;28;20056;-76
2022/04/08 04:38:05;;;;;;;2.25;1.30;;;;;;;;;;5028697;28;20048;-76
2022/04/08 04:40:31;;;;;;;7.53;1.40;;;;;;;;;;5039783;28;20032;-76
2022/04/08 04:42:57;;;;;;;8.93;1.85;;;;;;;;;;5041204;28;20413;-75
2022/04/08 04:45:24;;;;;;;5.20;1.50;;;;;;;;;;5040040;28;20021;-75
2022/04/08 04:47:50;;;;;;;5.95;1.55;;;;;;;;;;5036508;28;20037;-75
2022/04/08 04:50:16;;;;;;;2.28;1.10;;;;;;;;;;5039407;28;20025;-76
2022/04/08 04:52:42;;;;;;;3.88;1.30;;;;;;;;;;5052691;23;20075;-71
2022/04/08 04:55:08;;;;;;;7.65;1.80;;;;;;;;;;5059933;28;20524;-70
2022/04/08 04:57:35;;;;;;;4.68;1.55;;;;;;;;;;5063997;28;20199;-70
2022/04/08 05:00:02;;;;;;;3.03;1.40;;;;;;;;;;5065042;28;20029;-70
2022/04/08 05:02:28;;;;;;;4.13;1.50;;;;;;;;;;5065359;28;20048;-70
2022/04/08 05:04:54;;;;;;;4.15;1.50;;;;;;;;;;5044606;28;20127;-69
2022/04/08 05:07:20;;;;;;;5.57;1.73;;;;;;;;;;5048972;28;20061;-69
2022/04/08 05:09:45;;;;;;;6.78;1.58;;;;;;;;;;5043638;28;20494;-70
2022/04/08 05:12:11;;;;;;;4.38;1.70;;;;;;;;;;5049387;28;20052;-70
2022/04/08 05:14:38;;;;;;;4.80;1.60;;;;;;;;;;5048720;28;20069;-70
2022/04/08 05:17:04;;;;;;;5.35;1.60;;;;;;;;;;5048098;28;20052;-71
2022/04/08 05:19:30;;;;;;;4.50;1.50;;;;;;;;;;5047328;28;20025;-69
2022/04/08 05:21:56;;;;;;;4.28;1.52;;;;;;;;;;5049517;28;20056;-70
2022/04/08 05:24:22;;;;;;;3.72;1.70;;;;;;;;;;5055031;28;20043;-70
2022/04/08 05:26:47;;;;;;;8.20;1.70;;;;;;;;;;5052046;28;20105;-70
2022/04/08 05:29:13;;;;;;;8.23;1.85;;;;;;;;;;5049098;28;20589;-70
2022/04/08 05:31:39;;;;;;;6.10;2.05;;;;;;;;;;5049075;28;20125;-70
2022/04/08 05:34:05;;;;;;;4.78;1.70;;;;;;;;;;5048854;28;20072;-71
2022/04/08 05:36:31;;;;;;;23.20;10.20;;;;;;;;;;5044938;28;20024;-70
2022/04/08 05:38:57;;;;;;;5.70;1.60;;;;;;;;;;5049490;28;20042;-69
2022/04/08 05:41:26;;;;;;;4.72;1.70;;;;;;;;;;5048969;28;20423;-70
2022/04/08 05:43:54;;;;;;;4.57;2.05;;;;;;;;;;5048835;28;20036;-70
2022/04/08 05:46:20;;;;;;;7.00;2.00;;;;;;;;;;5048840;28;20036;-70
2022/04/08 05:48:46;;;;;;;8.02;2.15;;;;;;;;;;5058557;28;20567;-71
2022/04/08 05:51:12;;;;;;;5.95;2.03;;;;;;;;;;5057781;28;20056;-71
2022/04/08 05:53:41;;;;;;;5.35;1.77;;;;;;;;;;5048921;28;20064;-71
2022/04/08 05:56:06;;;;;;;8.63;2.10;;;;;;;;;;5051830;28;20040;-70
2022/04/08 05:58:33;;;;;;;6.32;2.33;;;;;;;;;;5056456;28;20034;-71
2022/04/08 06:01:02;;;;;;;7.95;1.90;;;;;;;;;;5056363;28;20021;-70
2022/04/08 06:03:28;;;;;;;8.40;2.08;;;;;;;;;;5054899;28;20466;-70
2022/04/08 06:05:54;;;;;;;7.22;2.30;;;;;;;;;;5058417;28;20027;-71
2022/04/08 06:08:21;;;;;;;11.93;2.60;;;;;;;;;;5056671;28;20039;-70
2022/04/08 06:10:46;;;;;;;9.15;2.10;;;;;;;;;;5049725;28;20032;-70
2022/04/08 06:13:12;;;;;;;7.85;2.00;;;;;;;;;;5053022;28;20475;-70
2022/04/08 06:15:38;;;;;;;10.73;2.40;;;;;;;;;;5056159;28;20035;-70
2022/04/08 06:18:04;;;;;;;9.07;2.70;;;;;;;;;;5056424;28;20056;-70
2022/04/08 06:20:30;;;;;;;11.65;2.95;;;;;;;;;;5056888;28;20028;-71
2022/04/08 06:22:56;;;;;;;12.70;2.85;;;;;;;;;;5056050;28;20696;-70
2022/04/08 06:25:24;;;;;;;8.40;2.70;;;;;;;;;;5056061;28;20040;-71
2022/04/08 06:28:04;;;;;;;13.95;2.40;;;;;;;;;;5057097;28;20074;-70
2022/04/08 06:30:32;;;;;;;8.20;2.38;;;;;;;;;;5047708;28;20029;-70
2022/04/08 06:32:58;;;;;;;8.75;1.90;;;;;;;;;;5047853;28;20033;-70
2022/04/08 06:35:24;;;;;;;9.10;2.63;;;;;;;;;;5051482;28;20034;-70
2022/04/08 06:37:50;;;;;;;8.65;2.38;;;;;;;;;;5055734;28;20459;-70
2022/04/08 06:40:16;;;;;;;9.30;2.30;;;;;;;;;;5061681;28;20064;-70
2022/04/08 06:42:42;;;;;;;14.85;2.42;;;;;;;;;;5051617;28;20398;-70
2022/04/08 06:45:08;;;;;;;10.57;2.30;;;;;;;;;;5047710;28;20606;-71
2022/04/08 06:47:47;;;;;;;12.70;2.60;;;;;;;;;;5049350;28;20040;-70
2022/04/08 06:50:13;;;;;;;9.88;2.95;;;;;;;;;;5067087;28;20024;-70
2022/04/08 06:52:39;;;;;;;14.02;2.53;;;;;;;;;;5051858;28;20033;-70
2022/04/08 06:55:05;;;;;;;12.32;2.38;;;;;;;;;;5046623;28;20679;-69
2022/04/08 06:57:31;;;;;;;37.95;17.48;;;;;;;;;;5046226;28;20040;-70
2022/04/08 06:59:57;;;;;;;8.45;2.67;;;;;;;;;;5046199;28;20393;-69
2022/04/08 07:02:23;;;;;;;11.32;2.28;;;;;;;;;;5044797;28;20072;-70
2022/04/08 07:04:50;;;;;;;13.55;2.63;;;;;;;;;;5046036;28;20063;-70
2022/04/08 07:07:15;;;;;;;11.95;2.72;;;;;;;;;;5046311;28;20033;-69
2022/04/08 07:09:41;;;;;;;8.52;2.35;;;;;;;;;;5049038;28;20518;-69
2022/04/08 07:12:07;;;;;;;12.88;2.92;;;;;;;;;;5047863;28;20060;-69
2022/04/08 07:14:33;;;;;;;9.02;2.40;;;;;;;;;;5047822;28;20029;-69
2022/04/08 07:16:59;;;;;;;22.52;3.38;;;;;;;;;;5047668;28;20037;-69
2022/04/08 07:19:25;;;;;;;12.40;2.78;;;;;;;;;;5047574;28;20028;-70
2022/04/08 07:21:51;;;;;;;10.73;2.55;;;;;;;;;;5047704;28;20470;-69
2022/04/08 07:24:17;;;;;;;14.63;2.63;;;;;;;;;;5046124;28;20043;-69
2022/04/08 07:26:42;;;;;;;12.65;2.50;;;;;;;;;;5047657;28;20580;-68
2022/04/08 07:29:09;;;;;;;11.30;2.40;;;;;;;;;;5047342;28;20426;-69
2022/04/08 07:31:36;;;;;;;10.95;2.70;;;;;;;;;;5046510;28;20033;-68
2022/04/08 07:34:01;;;;;;;17.63;2.80;;;;;;;;;;5044607;28;20036;-68
2022/04/08 07:36:27;;;;;;;14.75;2.60;;;;;;;;;;5047693;28;20449;-68
2022/04/08 07:38:53;;;;;;;10.80;2.33;;;;;;;;;;5045683;28;20115;-68
2022/04/08 07:41:19;;;;;;;15.30;2.60;;;;;;;;;;5047614;28;20055;-68
2022/04/08 07:43:45;;;;;;;13.43;3.03;;;;;;;;;;5047462;28;20061;-68
2022/04/08 07:46:11;;;;;;;11.85;1.98;;;;;;;;;;5051308;28;20025;-68
2022/04/08 07:48:36;;;;;;;16.15;2.83;;;;;;;;;;5053370;28;20110;-67
2022/04/08 07:51:02;;;;;;;13.23;3.05;;;;;;;;;;5060151;28;20056;-69
2022/04/08 07:53:28;;;;;;;16.55;3.15;;;;;;;;;;5057288;28;20055;-69
2022/04/08 07:55:55;;;;;;;18.33;2.50;;;;;;;;;;5056383;28;20064;-69
2022/04/08 07:58:21;;;;;;;10.25;2.20;;;;;;;;;;5058182;28;20029;-70
2022/04/08 08:00:47;;;;;;;10.45;2.67;;;;;;;;;;5056762;28;20064;-69
2022/04/08 08:03:15;;;;;;;12.05;2.28;;;;;;;;;;5058846;28;20064;-69
2022/04/08 08:05:40;;;;;;;10.90;2.60;;;;;;;;;;5062318;28;20368;-72
2022/04/08 08:08:07;;;;;;;15.35;3.05;;;;;;;;;;5058503;28;20063;-69
2022/04/08 08:10:39;;;;;;;20.25;8.57;;;;;;;;;;5059051;28;20025;-70
2022/04/08 08:13:05;;;;;;;12.52;4.15;;;;;;;;;;5048032;28;20642;-70
2022/04/08 08:15:33;;;;;;;15.95;3.03;;;;;;;;;;5056334;28;20025;-69
2022/04/08 08:17:59;;;;;;;9.52;2.33;;;;;;;;;;5060446;28;20025;-70
2022/04/08 08:20:26;;;;;;;13.00;2.90;;;;;;;;;;5055429;28;20036;-69
2022/04/08 08:22:52;;;;;;;15.45;2.70;;;;;;;;;;5048752;28;20041;-68
2022/04/08 08:25:19;;;;;;;7.68;2.10;;;;;;;;;;5052231;28;20048;-68
2022/04/08 08:27:59;;;;;;;12.90;2.45;;;;;;;;;;5050415;28;20458;-70
2022/04/08 08:30:27;;;;;;;19.40;6.28;;;;;;;;;;5050220;28;20052;-69
2022/04/08 08:32:53;;;;;;;14.80;2.70;;;;;;;;;;5054829;28;20033;-69
2022/04/08 08:35:19;;;;;;;16.45;5.15;;;;;;;;;;5058086;28;20032;-68
2022/04/08 08:37:46;;;;;;;14.60;2.80;;;;;;;;;;5050194;28;20088;-68
2022/04/08 08:40:14;;;;;;;11.38;2.35;;;;;;;;;;5050191;28;20029;-67
2022/04/08 08:42:41;;;;;;;11.68;2.50;;;;;;;;;;5048484;28;20043;-67
2022/04/08 08:45:08;;;;;;;10.63;2.50;;;;;;;;;;5049971;28;20026;-68
2022/04/08 08:47:35;;;;;;;9.73;2.38;;;;;;;;;;5044991;28;20036;-67
2022/04/08 08:50:02;;;;;;;12.63;3.00;;;;;;;;;;5040878;28;20036;-68
2022/04/08 08:52:28;;;;;;;11.75;2.60;;;;;;;;;;5042075;28;20044;-67
2022/04/08 08:54:54;;;;;;;11.77;2.55;;;;;;;;;;5049734;28;20508;-67
2022/04/08 08:57:22;;;;;;;18.38;3.75;;;;;;;;;;5049669;28;20033;-68
2022/04/08 08:59:51;;;;;;;11.32;2.55;;;;;;;;;;5050205;28;20024;-69
2022/04/08 09:02:21;;;;;;;16.52;3.58;;;;;;;;;;5049929;28;20025;-69
2022/04/08 09:04:51;;;;;;;10.10;2.35;;;;;;;;;;5049599;28;20037;-69
2022/04/08 09:07:25;;;;;;;21.75;3.42;;;;;;;;;;5051486;28;20039;-68
2022/04/08 09:09:55;;;;;;;9.93;2.80;;;;;;;;;;5048572;28;20032;-68
2022/04/08 09:12:25;;;;;;;12.43;3.65;;;;;;;;;;5048734;28;20029;-68
2022/04/08 09:14:53;;;;;;;16.48;4.93;;;;;;;;;;5049288;28;20555;-69
2022/04/08 09:17:20;;;;;;;74.20;42.22;;;;;;;;;;5042358;28;20132;-69
2022/04/08 09:19:50;;;;;;;13.80;3.28;;;;;;;;;;5042690;28;20032;-67
2022/04/08 09:22:17;;;;;;;9.00;2.67;;;;;;;;;;5040995;28;20029;-70
2022/04/08 09:24:43;;;;;;;15.82;2.58;;;;;;;;;;5049215;28;20415;-69
2022/04/08 09:27:10;;;;;;;11.90;2.33;;;;;;;;;;5049102;28;20035;-70
2022/04/08 09:29:36;;;;;;;13.55;3.33;;;;;;;;;;5056983;28;20135;-69
2022/04/08 09:32:10;;;;;;;9.45;2.25;;;;;;;;;;5048282;28;20029;-71
2022/04/08 09:34:37;;;;;;;8.55;2.60;;;;;;;;;;5045730;28;20047;-70
2022/04/08 09:37:13;;;;;;;8.52;2.60;;;;;;;;;;5046251;28;20032;-70
2022/04/08 09:40:20;;;;;;;9.45;2.20;;;;;;;;;;5041880;28;20382;-69
2022/04/08 09:42:47;;;;;;;11.65;2.08;;;;;;;;;;5004775;28;20057;-69
2022/04/08 09:45:14;;;;;;;7.00;1.90;;;;;;;;;;5005763;28;20044;-70
2022/04/08 09:47:41;;;;;;;11.48;2.28;;;;;;;;;;5024782;28;20048;-71
2022/04/08 09:50:09;;;;;;;6.97;2.25;;;;;;;;;;5043793;28;20045;-71
2022/04/08 09:52:37;;;;;;;10.25;2.33;;;;;;;;;;5040536;28;20231;-71
2022/04/08 09:55:07;;;;;;;7.88;1.70;;;;;;;;;;5039239;28;20040;-70
2022/04/08 09:57:38;;;;;;;8.75;1.95;;;;;;;;;;5040486;28;20052;-72
2022/04/08 10:00:06;;;;;;;9.13;1.98;;;;;;;;;;5036128;28;20036;-71
2022/04/08 10:02:40;;;;;;;8.60;1.90;;;;;;;;;;5047284;28;20413;-72
2022/04/08 10:05:08;;;;;;;10.77;2.55;;;;;;;;;;5045651;28;20036;-71
2022/04/08 10:07:35;;;;;;;6.03;1.90;;;;;;;;;;5045279;28;20052;-71
2022/04/08 10:10:31;;;;;;;14.57;4.28;;;;;;;;;;5055347;28;20040;-70
2022/04/08 10:13:46;;;;;;;39.13;19.98;;;;;;;;;;5049089;28;20029;-70
2022/04/08 10:16:19;;;;;;;10.93;3.30;;;;;;;;;;5011940;28;20505;-71
2022/04/08 10:18:48;;;;;;;9.40;2.33;;;;;;;;;;5041516;28;20029;-71
2022/04/08 10:21:14;;;;;;;11.13;2.30;;;;;;;;;;5048403;28;20021;-70
2022/04/08 10:23:47;;;;;;;10.77;2.28;;;;;;;;;;5048347;28;20017;-71
2022/04/08 10:26:27;;;;;;;13.88;3.03;;;;;;;;;;5046967;28;20421;-71
2022/04/08 10:28:55;;;;;;;6.25;2.40;;;;;;;;;;5047831;28;20575;-71
2022/04/08 10:31:26;;;;;;;6.80;2.33;;;;;;;;;;5048387;28;20028;-71
2022/04/08 10:33:57;;;;;;;6.00;2.20;;;;;;;;;;5048689;28;20029;-71
2022/04/08 10:36:43;;;;;;;11.48;2.70;;;;;;;;;;5051415;28;20029;-71
2022/04/08 10:39:23;;;;;;;9.15;2.65;;;;;;;;;;5050176;28;20037;-71
2022/04/08 10:41:57;;;;;;;20.25;9.52;;;;;;;;;;5047055;28;20028;-70
2022/04/08 10:44:33;;;;;;;7.90;2.63;;;;;;;;;;5047732;28;20033;-71
2022/04/08 10:47:01;;;;;;;7.07;3.10;;;;;;;;;;5047608;28;20032;-72
2022/04/08 10:49:27;;;;;;;8.27;2.17;;;;;;;;;;5047623;28;20036;-73
2022/04/08 10:51:53;;;;;;;5.97;2.20;;;;;;;;;;5048023;28;20056;-73
2022/04/08 10:54:20;;;;;;;7.22;2.15;;;;;;;;;;5045548;28;20493;-72
2022/04/08 10:56:57;;;;;;;7.88;2.05;;;;;;;;;;5050796;28;20498;-71
2022/04/08 10:59:27;;;;;;;5.70;2.33;;;;;;;;;;5041033;28;20052;-71
2022/04/08 11:01:58;;;;;;;4.97;2.00;;;;;;;;;;5047818;28;20029;-71
2022/04/08 11:04:26;;;;;;;;;;;;;;;;;;5048353;28;20028;-71
2022/04/08 11:06:52;;;;;;;6.68;2.30;;;;;;;;;;5047472;28;19920;-71
2022/04/08 11:09:19;;;;;;;5.70;2.08;;;;;;;;;;5048122;28;20071;-71
2022/04/08 11:11:52;;;;;;;6.22;2.10;;;;;;;;;;5042081;28;20033;-71
2022/04/08 11:14:18;;;;;;;6.38;1.88;;;;;;;;;;5047966;28;20044;-71
2022/04/08 11:16:47;;;;;;;9.00;4.03;;;;;;;;;;5050003;28;20032;-71
2022/04/08 11:19:13;;;;;;;7.95;3.75;;;;;;;;;;5048106;28;20040;-70
2022/04/08 11:21:43;;;;;;;3.08;1.60;;;;;;;;;;5058814;28;20039;-70
2022/04/08 11:24:14;;;;;;;2.83;1.58;;;;;;;;;;5062247;28;20466;-70
2022/04/08 11:26:50;;;;;;;4.93;1.50;;;;;;;;;;5061705;28;20391;-71
2022/04/08 11:29:22;;;;;;;2.88;1.58;;;;;;;;;;5053119;28;20040;-70
2022/04/08 11:31:49;;;;;;;5.03;1.63;;;;;;;;;;5051358;28;20017;-70
2022/04/08 11:34:15;;;;;;;3.47;1.45;;;;;;;;;;5051384;28;20048;-70
2022/04/08 11:36:43;;;;;;;2.83;1.30;;;;;;;;;;5049676;28;20041;-70
2022/04/08 11:39:19;;;;;;;1.92;1.33;;;;;;;;;;5038918;28;20056;-71
2022/04/08 11:41:51;;;;;;;2.78;1.50;;;;;;;;;;5051177;28;20017;-70
2022/04/08 11:44:17;;;;;;;3.67;1.63;;;;;;;;;;5051124;28;20025;-71
2022/04/08 11:46:43;;;;;;;2.47;1.70;;;;;;;;;;5051125;28;20095;-71
2022/04/08 11:49:11;;;;;;;3.20;1.65;;;;;;;;;;5049572;28;20087;-71
2022/04/08 11:51:37;;;;;;;5.70;2.97;;;;;;;;;;5049386;28;21696;-71
2022/04/08 11:54:04;;;;;;;5.50;1.88;;;;;;;;;;5040972;28;20430;-71
2022/04/08 11:56:31;;;;;;;8.98;4.60;;;;;;;;;;5050766;28;20021;-71
2022/04/08 11:59:00;;;;;;;8.10;3.15;;;;;;;;;;5050653;28;20028;-71
2022/04/08 12:01:33;;;;;;;4.35;1.88;;;;;;;;;;5050761;28;20028;-71
2022/04/08 12:04:01;;;;;;;3.90;1.75;;;;;;;;;;5049476;28;20044;-71
2022/04/08 12:06:47;;;;;;;3.92;1.90;;;;;;;;;;5050868;28;20490;-71
2022/04/08 12:09:14;;;;;;;5.25;1.90;;;;;;;;;;5050184;28;20029;-71
2022/04/08 12:11:43;;;;;;;2.58;1.58;;;;;;;;;;5050548;28;20486;-71
2022/04/08 12:14:10;;;;;;;6.75;1.90;;;;;;;;;;5050708;28;20481;-71
2022/04/08 12:16:37;;;;;;;6.43;2.00;;;;;;;;;;5050627;28;20033;-71
2022/04/08 12:19:04;;;;;;;5.45;1.92;;;;;;;;;;5050404;28;20104;-70
2022/04/08 12:21:31;;;;;;;3.58;1.73;;;;;;;;;;5050399;28;20020;-71
2022/04/08 12:24:03;;;;;;;3.10;1.60;;;;;;;;;;5050514;28;20033;-71
2022/04/08 12:26:34;;;;;;;3.55;1.70;;;;;;;;;;5042446;28;20417;-72
2022/04/08 12:29:10;;;;;;;3.70;1.65;;;;;;;;;;5049787;28;20032;-71
2022/04/08 12:31:47;;;;;;;3.67;1.83;;;;;;;;;;5035547;28;20040;-70
2022/04/08 12:34:17;;;;;;;4.38;1.70;;;;;;;;;;5050370;28;20032;-71
2022/04/08 12:36:47;;;;;;;6.43;1.90;;;;;;;;;;5050273;28;20347;-71
2022/04/08 12:39:14;;;;;;;4.72;1.77;;;;;;;;;;5050084;28;20025;-71
2022/04/08 12:41:41;;;;;;;2.63;1.38;;;;;;;;;;5050235;28;20029;-71
2022/04/08 12:44:08;;;;;;;1.98;1.40;;;;;;;;;;5050344;28;20036;-70
2022/04/08 12:46:35;;;;;;;1.02;0.98;;;;;;;;;;5050211;28;20041;-71
2022/04/08 12:49:01;;;;;;;2.60;1.30;;;;;;;;;;5049754;28;20354;-73
2022/04/08 12:51:28;;;;;;;2.10;1.48;;;;;;;;;;5049863;28;20029;-71
2022/04/08 12:53:55;;;;;;;0.90;0.90;;;;;;;;;;5050046;28;20036;-71
2022/04/08 12:56:21;;;;;;;3.00;1.13;;;;;;;;;;5050078;28;20032;-71
2022/04/08 12:58:47;;;;;;;1.83;1.00;;;;;;;;;;5049826;28;20037;-70
2022/04/08 13:01:13;;;;;;;1.70;1.10;;;;;;;;;;5050115;28;20052;-73
2022/04/08 13:03:39;;;;;;;1.85;0.90;;;;;;;;;;5054836;28;20075;-71
2022/04/08 13:06:05;;;;;;;2.70;1.95;;;;;;;;;;5056443;28;20032;-71
2022/04/08 13:08:30;;;;;;;10.38;4.22;;;;;;;;;;5060526;28;20418;-71
2022/04/08 13:10:57;;;;;;;3.00;1.42;;;;;;;;;;5061366;28;20064;-71
2022/04/08 13:13:22;;;;;;;2.38;1.27;;;;;;;;;;5050355;28;20029;-71
2022/04/08 13:15:51;;;;;;;5.78;1.65;;;;;;;;;;5050634;28;20084;-71
2022/04/08 13:18:17;;;;;;;5.60;1.83;;;;;;;;;;5056377;28;20031;-71
2022/04/08 13:20:44;;;;;;;3.80;1.65;;;;;;;;;;5049470;28;20029;-71
2022/04/08 13:23:10;;;;;;;3.97;1.75;;;;;;;;;;5049162;28;20532;-71
2022/04/08 13:25:36;;;;;;;5.20;1.60;;;;;;;;;;5049124;28;20028;-71
2022/04/08 13:28:02;;;;;;;2.80;1.45;;;;;;;;;;5049001;28;20033;-71
2022/04/08 13:30:28;;;;;;;2.92;1.25;;;;;;;;;;5049151;28;20032;-71
2022/04/08 13:32:54;;;;;;;3.33;1.55;;;;;;;;;;5049138;28;20122;-71
2022/04/08 13:35:20;;;;;;;2.70;1.08;;;;;;;;;;5049114;28;20033;-71
2022/04/08 13:37:46;;;;;;;3.00;1.00;;;;;;;;;;5043948;28;20390;-71
2022/04/08 13:40:12;;;;;;;1.27;0.90;;;;;;;;;;5028232;28;20037;-71
2022/04/08 13:42:38;;;;;;;1.63;0.80;;;;;;;;;;5027712;28;20046;-71
2022/04/08 13:45:06;;;;;;;0.82;0.82;;;;;;;;;;5033338;28;20055;-72
2022/04/08 13:47:33;;;;;;;4.32;0.85;;;;;;;;;;5027053;28;20037;-71
2022/04/08 13:49:59;;;;;;;2.90;1.33;;;;;;;;;;5027690;28;20037;-71
2022/04/08 13:52:25;;;;;;;2.35;1.10;;;;;;;;;;5028330;28;20067;-71
2022/04/08 13:54:52;;;;;;;2.03;1.30;;;;;;;;;;5028720;28;20276;-73
2022/04/08 13:57:18;;;;;;;2.55;1.35;;;;;;;;;;5042826;28;20029;-71
2022/04/08 13:59:45;;;;;;;1.45;0.98;;;;;;;;;;5033968;28;20045;-70
2022/04/08 14:02:14;;;;;;;2.47;0.98;;;;;;;;;;5048267;28;20512;-71
2022/04/08 14:04:41;;;;;;;1.95;1.15;;;;;;;;;;5046344;28;20060;-71
2022/04/08 14:07:07;;;;;;;1.77;1.20;;;;;;;;;;5044687;28;20147;-71
2022/04/08 14:09:34;;;;;;;5.53;2.70;;;;;;;;;;5043073;28;20174;-71
2022/04/08 14:12:00;;;;;;;5.93;2.33;;;;;;;;;;5051483;28;20037;-71
2022/04/08 14:14:26;;;;;;;1.10;1.00;;;;;;;;;;5034217;28;20378;-71
2022/04/08 14:16:52;;;;;;;1.80;1.10;;;;;;;;;;5035651;28;20029;-70
2022/04/08 14:19:18;;;;;;;2.40;1.25;;;;;;;;;;5036693;28;20060;-70
2022/04/08 14:21:44;;;;;;;3.50;1.10;;;;;;;;;;5033739;28;20060;-70
2022/04/08 14:24:10;;;;;;;2.38;1.48;;;;;;;;;;5034442;28;20025;-70
2022/04/08 14:26:36;;;;;;;2.70;1.13;;;;;;;;;;5049694;28;20037;-69
2022/04/08 14:29:04;;;;;;;4.18;1.58;;;;;;;;;;5034618;28;20494;-70
2022/04/08 14:31:33;;;;;;;2.60;1.30;;;;;;;;;;5045674;28;20028;-71
2022/04/08 14:33:59;;;;;;;1.30;1.05;;;;;;;;;;5044570;28;20052;-70
2022/04/08 14:36:25;;;;;;;2.80;1.30;;;;;;;;;;5045734;28;20087;-70
2022/04/08 14:38:51;;;;;;;1.95;1.20;;;;;;;;;;5050370;28;20076;-70
2022/04/08 14:41:17;;;;;;;1.70;1.08;;;;;;;;;;5055596;28;20150;-71
2022/04/08 14:43:43;;;;;;;1.42;1.05;;;;;;;;;;5052937;28;20029;-70